sensor_id;sensor_type;location;lat;lon;timestamp;P1;durP1;ratioP1;P2;durP2;ratioP2
76962;SDS011;65902;51.452;7.198;2023-05-07T00:00:24;5.60;;;4.82;;
76962;SDS011;65902;51.452;7.198;2023-05-07T00:01:24;6.10;;;4.90;;
76962;SDS011;65902;51.452;7.198;2023-05-07T00:02:26;6.53;;;5.60;;
76962;SDS011;65902;51.452;7.198;2023-05-07T00:03:27;6.53;;;5.93;;
76962;SDS011;65902;51.452;7.198;2023-05-07T00:04:30;5.75;;;4.82;;
76962;SDS011;65902;51.452;7.198;2023-05-07T00:05:37;6.90;;;4.90;;
76962;SDS011;65902;51.452;7.198;2023-05-07T00:06:38;6.50;;;5.65;;
76962;SDS011;65902;51.452;7.198;2023-05-07T00:07:38;4.97;;;4.43;;
76962;SDS011;65902;51.452;7.198;2023-05-07T00:08:39;5.60;;;5.00;;
76962;SDS011;65902;51.452;7.198;2023-05-07T00:09:39;5.75;;;4.88;;
76962;SDS011;65902;51.452;7.198;2023-05-07T00:10:40;7.60;;;5.22;;
76962;SDS011;65902;51.452;7.198;2023-05-07T00:11:41;6.00;;;4.97;;
76962;SDS011;65902;51.452;7.198;2023-05-07T00:12:42;6.53;;;4.57;;
76962;SDS011;65902;51.452;7.198;2023-05-07T00:13:42;6.78;;;5.97;;
76962;SDS011;65902;51.452;7.198;2023-05-07T00:14:43;6.13;;;4.95;;
76962;SDS011;65902;51.452;7.198;2023-05-07T00:15:46;6.32;;;5.63;;
76962;SDS011;65902;51.452;7.198;2023-05-07T00:16:49;7.13;;;6.03;;
76962;SDS011;65902;51.452;7.198;2023-05-07T00:17:49;6.43;;;4.72;;
76962;SDS011;65902;51.452;7.198;2023-05-07T00:18:51;4.97;;;4.40;;
76962;SDS011;65902;51.452;7.198;2023-05-07T00:19:52;6.25;;;5.05;;
76962;SDS011;65902;51.452;7.198;2023-05-07T00:20:53;6.93;;;4.80;;
76962;SDS011;65902;51.452;7.198;2023-05-07T00:21:53;6.00;;;5.40;;
76962;SDS011;65902;51.452;7.198;2023-05-07T00:22:54;5.75;;;5.22;;
76962;SDS011;65902;51.452;7.198;2023-05-07T00:23:54;7.80;;;5.18;;
76962;SDS011;65902;51.452;7.198;2023-05-07T00:25:04;5.78;;;4.65;;
76962;SDS011;65902;51.452;7.198;2023-05-07T00:26:11;6.07;;;5.30;;
76962;SDS011;65902;51.452;7.198;2023-05-07T00:27:13;6.45;;;5.85;;
76962;SDS011;65902;51.452;7.198;2023-05-07T00:28:15;6.85;;;6.18;;
76962;SDS011;65902;51.452;7.198;2023-05-07T00:29:16;6.07;;;5.50;;
76962;SDS011;65902;51.452;7.198;2023-05-07T00:30:16;6.75;;;5.45;;
76962;SDS011;65902;51.452;7.198;2023-05-07T00:31:22;6.72;;;6.03;;
76962;SDS011;65902;51.452;7.198;2023-05-07T00:32:30;6.53;;;5.15;;
76962;SDS011;65902;51.452;7.198;2023-05-07T00:33:31;5.70;;;5.10;;
76962;SDS011;65902;51.452;7.198;2023-05-07T00:34:31;7.22;;;6.28;;
76962;SDS011;65902;51.452;7.198;2023-05-07T00:35:32;6.35;;;5.40;;
76962;SDS011;65902;51.452;7.198;2023-05-07T00:36:32;6.88;;;5.35;;
76962;SDS011;65902;51.452;7.198;2023-05-07T00:37:33;6.47;;;5.78;;
76962;SDS011;65902;51.452;7.198;2023-05-07T00:38:33;6.95;;;5.97;;
76962;SDS011;65902;51.452;7.198;2023-05-07T00:39:37;6.90;;;6.20;;
76962;SDS011;65902;51.452;7.198;2023-05-07T00:40:40;7.80;;;5.65;;
76962;SDS011;65902;51.452;7.198;2023-05-07T00:41:40;8.52;;;5.82;;
76962;SDS011;65902;51.452;7.198;2023-05-07T00:42:41;7.28;;;5.72;;
76962;SDS011;65902;51.452;7.198;2023-05-07T00:43:41;6.28;;;5.43;;
76962;SDS011;65902;51.452;7.198;2023-05-07T00:44:42;6.68;;;5.75;;
76962;SDS011;65902;51.452;7.198;2023-05-07T00:45:42;7.55;;;4.93;;
76962;SDS011;65902;51.452;7.198;2023-05-07T00:46:43;8.27;;;6.05;;
76962;SDS011;65902;51.452;7.198;2023-05-07T00:47:45;6.95;;;6.25;;
76962;SDS011;65902;51.452;7.198;2023-05-07T00:48:46;6.80;;;5.97;;
76962;SDS011;65902;51.452;7.198;2023-05-07T00:49:47;8.75;;;5.57;;
76962;SDS011;65902;51.452;7.198;2023-05-07T00:50:47;8.32;;;6.43;;
76962;SDS011;65902;51.452;7.198;2023-05-07T00:51:48;6.85;;;5.80;;
76962;SDS011;65902;51.452;7.198;2023-05-07T00:52:51;7.07;;;5.43;;
76962;SDS011;65902;51.452;7.198;2023-05-07T00:54:09;8.20;;;4.80;;
76962;SDS011;65902;51.452;7.198;2023-05-07T00:55:10;6.65;;;5.75;;
76962;SDS011;65902;51.452;7.198;2023-05-07T00:56:10;6.35;;;5.35;;
76962;SDS011;65902;51.452;7.198;2023-05-07T00:57:12;6.05;;;5.25;;
76962;SDS011;65902;51.452;7.198;2023-05-07T00:58:14;6.72;;;5.90;;
76962;SDS011;65902;51.452;7.198;2023-05-07T00:59:17;5.90;;;5.22;;
76962;SDS011;65902;51.452;7.198;2023-05-07T01:00:18;6.18;;;5.05;;
76962;SDS011;65902;51.452;7.198;2023-05-07T01:01:20;7.18;;;5.90;;
76962;SDS011;65902;51.452;7.198;2023-05-07T01:02:20;6.53;;;5.90;;
76962;SDS011;65902;51.452;7.198;2023-05-07T01:03:22;7.00;;;6.07;;
76962;SDS011;65902;51.452;7.198;2023-05-07T01:04:24;6.53;;;5.35;;
76962;SDS011;65902;51.452;7.198;2023-05-07T01:05:24;7.00;;;6.30;;
76962;SDS011;65902;51.452;7.198;2023-05-07T01:06:26;9.57;;;6.47;;
76962;SDS011;65902;51.452;7.198;2023-05-07T01:07:29;7.22;;;6.53;;
76962;SDS011;65902;51.452;7.198;2023-05-07T01:08:30;7.60;;;5.90;;
76962;SDS011;65902;51.452;7.198;2023-05-07T01:09:32;10.73;;;5.53;;
76962;SDS011;65902;51.452;7.198;2023-05-07T01:10:33;6.85;;;5.60;;
76962;SDS011;65902;51.452;7.198;2023-05-07T01:11:34;7.18;;;5.80;;
76962;SDS011;65902;51.452;7.198;2023-05-07T01:12:36;11.02;;;5.68;;
76962;SDS011;65902;51.452;7.198;2023-05-07T01:13:37;7.93;;;7.13;;
76962;SDS011;65902;51.452;7.198;2023-05-07T01:14:38;7.63;;;6.93;;
76962;SDS011;65902;51.452;7.198;2023-05-07T01:15:38;6.60;;;5.90;;
76962;SDS011;65902;51.452;7.198;2023-05-07T01:16:41;10.93;;;6.88;;
76962;SDS011;65902;51.452;7.198;2023-05-07T01:17:42;8.52;;;6.85;;
76962;SDS011;65902;51.452;7.198;2023-05-07T01:18:43;9.38;;;6.07;;
76962;SDS011;65902;51.452;7.198;2023-05-07T01:19:44;9.35;;;6.60;;
76962;SDS011;65902;51.452;7.198;2023-05-07T01:20:44;7.72;;;6.82;;
76962;SDS011;65902;51.452;7.198;2023-05-07T01:21:46;10.35;;;7.00;;
76962;SDS011;65902;51.452;7.198;2023-05-07T01:22:47;9.80;;;6.80;;
76962;SDS011;65902;51.452;7.198;2023-05-07T01:23:48;8.32;;;6.53;;
76962;SDS011;65902;51.452;7.198;2023-05-07T01:24:49;9.10;;;6.97;;
76962;SDS011;65902;51.452;7.198;2023-05-07T01:25:51;11.77;;;6.40;;
76962;SDS011;65902;51.452;7.198;2023-05-07T01:26:52;6.93;;;5.82;;
76962;SDS011;65902;51.452;7.198;2023-05-07T01:27:52;8.90;;;6.72;;
76962;SDS011;65902;51.452;7.198;2023-05-07T01:28:52;8.88;;;6.60;;
76962;SDS011;65902;51.452;7.198;2023-05-07T01:29:53;7.95;;;6.53;;
76962;SDS011;65902;51.452;7.198;2023-05-07T01:30:55;8.68;;;6.43;;
76962;SDS011;65902;51.452;7.198;2023-05-07T01:31:57;8.45;;;6.10;;
76962;SDS011;65902;51.452;7.198;2023-05-07T01:34:03;10.13;;;6.78;;
76962;SDS011;65902;51.452;7.198;2023-05-07T01:35:05;7.57;;;6.03;;
76962;SDS011;65902;51.452;7.198;2023-05-07T01:36:06;8.85;;;6.38;;
76962;SDS011;65902;51.452;7.198;2023-05-07T01:37:07;8.50;;;6.57;;
76962;SDS011;65902;51.452;7.198;2023-05-07T01:38:07;7.25;;;6.05;;
76962;SDS011;65902;51.452;7.198;2023-05-07T01:39:08;9.93;;;7.15;;
76962;SDS011;65902;51.452;7.198;2023-05-07T01:40:10;7.57;;;6.82;;
76962;SDS011;65902;51.452;7.198;2023-05-07T01:41:11;8.57;;;6.72;;
76962;SDS011;65902;51.452;7.198;2023-05-07T01:42:12;8.00;;;7.13;;
76962;SDS011;65902;51.452;7.198;2023-05-07T01:43:12;9.43;;;6.45;;
76962;SDS011;65902;51.452;7.198;2023-05-07T01:44:13;10.15;;;7.00;;
76962;SDS011;65902;51.452;7.198;2023-05-07T01:45:14;8.32;;;7.47;;
76962;SDS011;65902;51.452;7.198;2023-05-07T01:46:15;9.43;;;6.68;;
76962;SDS011;65902;51.452;7.198;2023-05-07T01:47:17;7.30;;;5.85;;
76962;SDS011;65902;51.452;7.198;2023-05-07T01:48:18;7.32;;;5.88;;
76962;SDS011;65902;51.452;7.198;2023-05-07T01:49:19;7.35;;;6.57;;
76962;SDS011;65902;51.452;7.198;2023-05-07T01:50:19;8.80;;;6.55;;
76962;SDS011;65902;51.452;7.198;2023-05-07T01:51:20;8.77;;;6.00;;
76962;SDS011;65902;51.452;7.198;2023-05-07T01:52:22;10.07;;;7.55;;
76962;SDS011;65902;51.452;7.198;2023-05-07T01:53:22;10.90;;;8.18;;
76962;SDS011;65902;51.452;7.198;2023-05-07T01:54:26;8.88;;;7.97;;
76962;SDS011;65902;51.452;7.198;2023-05-07T01:55:30;11.70;;;7.88;;
76962;SDS011;65902;51.452;7.198;2023-05-07T01:56:30;10.27;;;7.57;;
76962;SDS011;65902;51.452;7.198;2023-05-07T01:57:31;8.60;;;7.70;;
76962;SDS011;65902;51.452;7.198;2023-05-07T01:58:31;9.52;;;8.43;;
76962;SDS011;65902;51.452;7.198;2023-05-07T01:59:32;9.43;;;7.63;;
76962;SDS011;65902;51.452;7.198;2023-05-07T02:00:33;9.43;;;7.55;;
76962;SDS011;65902;51.452;7.198;2023-05-07T02:01:34;8.55;;;7.05;;
76962;SDS011;65902;51.452;7.198;2023-05-07T02:02:35;9.88;;;6.90;;
76962;SDS011;65902;51.452;7.198;2023-05-07T02:03:35;9.32;;;8.35;;
76962;SDS011;65902;51.452;7.198;2023-05-07T02:04:37;9.45;;;7.28;;
76962;SDS011;65902;51.452;7.198;2023-05-07T02:05:37;10.68;;;7.30;;
76962;SDS011;65902;51.452;7.198;2023-05-07T02:06:38;8.70;;;7.43;;
76962;SDS011;65902;51.452;7.198;2023-05-07T02:07:39;9.70;;;6.60;;
76962;SDS011;65902;51.452;7.198;2023-05-07T02:08:40;8.90;;;6.82;;
76962;SDS011;65902;51.452;7.198;2023-05-07T02:09:41;9.55;;;6.90;;
76962;SDS011;65902;51.452;7.198;2023-05-07T02:10:42;12.88;;;7.75;;
76962;SDS011;65902;51.452;7.198;2023-05-07T02:11:42;8.82;;;6.95;;
76962;SDS011;65902;51.452;7.198;2023-05-07T02:12:43;11.20;;;7.72;;
76962;SDS011;65902;51.452;7.198;2023-05-07T02:13:44;7.68;;;6.95;;
76962;SDS011;65902;51.452;7.198;2023-05-07T02:14:44;8.38;;;7.47;;
76962;SDS011;65902;51.452;7.198;2023-05-07T02:15:44;9.00;;;7.97;;
76962;SDS011;65902;51.452;7.198;2023-05-07T02:16:49;7.53;;;6.10;;
76962;SDS011;65902;51.452;7.198;2023-05-07T02:18:08;9.30;;;7.00;;
76962;SDS011;65902;51.452;7.198;2023-05-07T02:19:09;9.05;;;7.40;;
76962;SDS011;65902;51.452;7.198;2023-05-07T02:20:12;9.13;;;7.38;;
76962;SDS011;65902;51.452;7.198;2023-05-07T02:21:13;9.43;;;7.80;;
76962;SDS011;65902;51.452;7.198;2023-05-07T02:22:16;8.82;;;7.38;;
76962;SDS011;65902;51.452;7.198;2023-05-07T02:23:16;8.60;;;7.25;;
76962;SDS011;65902;51.452;7.198;2023-05-07T02:24:19;8.80;;;7.90;;
76962;SDS011;65902;51.452;7.198;2023-05-07T02:25:20;13.10;;;7.80;;
76962;SDS011;65902;51.452;7.198;2023-05-07T02:26:25;8.95;;;7.93;;
76962;SDS011;65902;51.452;7.198;2023-05-07T02:28:27;11.00;;;7.47;;
76962;SDS011;65902;51.452;7.198;2023-05-07T02:29:27;9.35;;;7.35;;
76962;SDS011;65902;51.452;7.198;2023-05-07T02:30:30;8.43;;;7.15;;
76962;SDS011;65902;51.452;7.198;2023-05-07T02:31:30;11.77;;;9.60;;
76962;SDS011;65902;51.452;7.198;2023-05-07T02:32:34;9.27;;;7.97;;
76962;SDS011;65902;51.452;7.198;2023-05-07T02:33:37;9.02;;;7.97;;
76962;SDS011;65902;51.452;7.198;2023-05-07T02:34:37;8.65;;;7.68;;
76962;SDS011;65902;51.452;7.198;2023-05-07T02:35:38;10.13;;;8.07;;
76962;SDS011;65902;51.452;7.198;2023-05-07T02:36:38;10.25;;;8.55;;
76962;SDS011;65902;51.452;7.198;2023-05-07T02:37:38;11.65;;;8.82;;
76962;SDS011;65902;51.452;7.198;2023-05-07T02:38:42;10.05;;;7.15;;
76962;SDS011;65902;51.452;7.198;2023-05-07T02:39:43;10.15;;;7.88;;
76962;SDS011;65902;51.452;7.198;2023-05-07T02:40:44;8.38;;;7.50;;
76962;SDS011;65902;51.452;7.198;2023-05-07T02:41:44;9.88;;;8.00;;
76962;SDS011;65902;51.452;7.198;2023-05-07T02:42:47;8.85;;;7.10;;
76962;SDS011;65902;51.452;7.198;2023-05-07T02:43:47;11.18;;;8.02;;
76962;SDS011;65902;51.452;7.198;2023-05-07T02:44:51;10.35;;;9.05;;
76962;SDS011;65902;51.452;7.198;2023-05-07T02:46:02;8.82;;;7.90;;
76962;SDS011;65902;51.452;7.198;2023-05-07T02:47:03;9.88;;;7.65;;
76962;SDS011;65902;51.452;7.198;2023-05-07T02:48:04;8.93;;;7.95;;
76962;SDS011;65902;51.452;7.198;2023-05-07T02:49:05;11.15;;;7.40;;
76962;SDS011;65902;51.452;7.198;2023-05-07T02:50:08;8.40;;;7.53;;
76962;SDS011;65902;51.452;7.198;2023-05-07T02:51:08;9.15;;;7.90;;
76962;SDS011;65902;51.452;7.198;2023-05-07T02:52:09;8.30;;;7.35;;
76962;SDS011;65902;51.452;7.198;2023-05-07T02:53:12;11.40;;;7.32;;
76962;SDS011;65902;51.452;7.198;2023-05-07T02:54:13;9.25;;;7.85;;
76962;SDS011;65902;51.452;7.198;2023-05-07T02:55:13;9.65;;;8.70;;
76962;SDS011;65902;51.452;7.198;2023-05-07T02:56:14;9.95;;;8.95;;
76962;SDS011;65902;51.452;7.198;2023-05-07T02:57:17;8.95;;;7.95;;
76962;SDS011;65902;51.452;7.198;2023-05-07T02:58:17;9.40;;;8.43;;
76962;SDS011;65902;51.452;7.198;2023-05-07T02:59:20;10.60;;;7.68;;
76962;SDS011;65902;51.452;7.198;2023-05-07T03:00:23;9.23;;;7.93;;
76962;SDS011;65902;51.452;7.198;2023-05-07T03:01:24;8.20;;;7.38;;
76962;SDS011;65902;51.452;7.198;2023-05-07T03:02:25;10.52;;;7.72;;
76962;SDS011;65902;51.452;7.198;2023-05-07T03:03:25;7.55;;;6.75;;
76962;SDS011;65902;51.452;7.198;2023-05-07T03:04:26;8.98;;;7.50;;
76962;SDS011;65902;51.452;7.198;2023-05-07T03:05:26;10.05;;;7.30;;
76962;SDS011;65902;51.452;7.198;2023-05-07T03:06:29;12.32;;;7.85;;
76962;SDS011;65902;51.452;7.198;2023-05-07T03:08:33;10.82;;;7.10;;
76962;SDS011;65902;51.452;7.198;2023-05-07T03:09:38;9.88;;;7.47;;
76962;SDS011;65902;51.452;7.198;2023-05-07T03:10:39;10.40;;;8.18;;
76962;SDS011;65902;51.452;7.198;2023-05-07T03:11:42;9.35;;;8.10;;
76962;SDS011;65902;51.452;7.198;2023-05-07T03:12:46;9.25;;;7.85;;
76962;SDS011;65902;51.452;7.198;2023-05-07T03:13:46;11.02;;;7.80;;
76962;SDS011;65902;51.452;7.198;2023-05-07T03:15:52;9.73;;;7.75;;
76962;SDS011;65902;51.452;7.198;2023-05-07T03:16:52;7.82;;;7.03;;
76962;SDS011;65902;51.452;7.198;2023-05-07T03:17:53;8.65;;;7.13;;
76962;SDS011;65902;51.452;7.198;2023-05-07T03:18:53;8.45;;;7.65;;
76962;SDS011;65902;51.452;7.198;2023-05-07T03:19:56;10.93;;;8.30;;
76962;SDS011;65902;51.452;7.198;2023-05-07T03:20:59;8.90;;;8.00;;
76962;SDS011;65902;51.452;7.198;2023-05-07T03:22:03;8.57;;;7.18;;
76962;SDS011;65902;51.452;7.198;2023-05-07T03:23:03;11.90;;;7.90;;
76962;SDS011;65902;51.452;7.198;2023-05-07T03:24:06;9.95;;;7.53;;
76962;SDS011;65902;51.452;7.198;2023-05-07T03:25:08;9.60;;;8.25;;
76962;SDS011;65902;51.452;7.198;2023-05-07T03:26:11;8.57;;;7.22;;
76962;SDS011;65902;51.452;7.198;2023-05-07T03:27:16;11.45;;;8.07;;
76962;SDS011;65902;51.452;7.198;2023-05-07T03:28:22;9.88;;;8.00;;
76962;SDS011;65902;51.452;7.198;2023-05-07T03:29:24;9.75;;;7.90;;
76962;SDS011;65902;51.452;7.198;2023-05-07T03:30:25;9.50;;;7.60;;
76962;SDS011;65902;51.452;7.198;2023-05-07T03:31:25;10.15;;;8.15;;
76962;SDS011;65902;51.452;7.198;2023-05-07T03:32:28;11.00;;;8.05;;
76962;SDS011;65902;51.452;7.198;2023-05-07T03:33:32;9.27;;;7.80;;
76962;SDS011;65902;51.452;7.198;2023-05-07T03:34:36;10.43;;;7.05;;
76962;SDS011;65902;51.452;7.198;2023-05-07T03:36:37;8.52;;;7.65;;
76962;SDS011;65902;51.452;7.198;2023-05-07T03:37:38;9.00;;;8.05;;
76962;SDS011;65902;51.452;7.198;2023-05-07T03:38:41;9.13;;;7.82;;
76962;SDS011;65902;51.452;7.198;2023-05-07T03:39:41;9.65;;;8.60;;
76962;SDS011;65902;51.452;7.198;2023-05-07T03:40:42;11.07;;;7.13;;
76962;SDS011;65902;51.452;7.198;2023-05-07T03:41:44;9.70;;;7.68;;
76962;SDS011;65902;51.452;7.198;2023-05-07T03:42:47;8.43;;;7.40;;
76962;SDS011;65902;51.452;7.198;2023-05-07T03:43:50;9.82;;;8.82;;
76962;SDS011;65902;51.452;7.198;2023-05-07T03:44:51;10.02;;;9.02;;
76962;SDS011;65902;51.452;7.198;2023-05-07T03:45:52;9.32;;;8.02;;
76962;SDS011;65902;51.452;7.198;2023-05-07T03:46:53;10.27;;;8.65;;
76962;SDS011;65902;51.452;7.198;2023-05-07T03:47:53;9.70;;;8.27;;
76962;SDS011;65902;51.452;7.198;2023-05-07T03:49:58;11.77;;;8.13;;
76962;SDS011;65902;51.452;7.198;2023-05-07T03:50:59;11.18;;;9.27;;
76962;SDS011;65902;51.452;7.198;2023-05-07T03:52:00;10.95;;;9.48;;
76962;SDS011;65902;51.452;7.198;2023-05-07T03:53:03;11.43;;;8.75;;
76962;SDS011;65902;51.452;7.198;2023-05-07T03:54:03;11.95;;;9.05;;
76962;SDS011;65902;51.452;7.198;2023-05-07T03:55:04;10.43;;;8.95;;
76962;SDS011;65902;51.452;7.198;2023-05-07T03:56:07;12.55;;;10.35;;
76962;SDS011;65902;51.452;7.198;2023-05-07T03:57:10;11.75;;;9.68;;
76962;SDS011;65902;51.452;7.198;2023-05-07T03:58:11;10.35;;;9.35;;
76962;SDS011;65902;51.452;7.198;2023-05-07T03:59:12;12.50;;;9.43;;
76962;SDS011;65902;51.452;7.198;2023-05-07T04:00:13;14.60;;;9.63;;
76962;SDS011;65902;51.452;7.198;2023-05-07T04:01:14;11.80;;;10.45;;
76962;SDS011;65902;51.452;7.198;2023-05-07T04:02:15;12.50;;;10.48;;
76962;SDS011;65902;51.452;7.198;2023-05-07T04:03:16;10.98;;;9.52;;
76962;SDS011;65902;51.452;7.198;2023-05-07T04:04:17;12.43;;;11.00;;
76962;SDS011;65902;51.452;7.198;2023-05-07T04:05:20;11.05;;;9.88;;
76962;SDS011;65902;51.452;7.198;2023-05-07T04:06:21;11.48;;;10.07;;
76962;SDS011;65902;51.452;7.198;2023-05-07T04:07:22;12.43;;;10.43;;
76962;SDS011;65902;51.452;7.198;2023-05-07T04:08:23;11.80;;;9.25;;
76962;SDS011;65902;51.452;7.198;2023-05-07T04:09:26;10.02;;;8.80;;
76962;SDS011;65902;51.452;7.198;2023-05-07T04:10:26;11.85;;;10.50;;
76962;SDS011;65902;51.452;7.198;2023-05-07T04:11:28;12.20;;;10.90;;
76962;SDS011;65902;51.452;7.198;2023-05-07T04:12:29;10.77;;;9.32;;
76962;SDS011;65902;51.452;7.198;2023-05-07T04:13:32;11.38;;;9.77;;
76962;SDS011;65902;51.452;7.198;2023-05-07T04:14:34;12.52;;;10.65;;
76962;SDS011;65902;51.452;7.198;2023-05-07T04:15:35;11.43;;;10.20;;
76962;SDS011;65902;51.452;7.198;2023-05-07T04:16:38;11.82;;;10.30;;
76962;SDS011;65902;51.452;7.198;2023-05-07T04:17:38;12.25;;;9.48;;
76962;SDS011;65902;51.452;7.198;2023-05-07T04:18:42;12.60;;;8.98;;
76962;SDS011;65902;51.452;7.198;2023-05-07T04:20:45;14.23;;;10.60;;
76962;SDS011;65902;51.452;7.198;2023-05-07T04:21:49;12.98;;;10.23;;
76962;SDS011;65902;51.452;7.198;2023-05-07T04:22:52;11.95;;;10.48;;
76962;SDS011;65902;51.452;7.198;2023-05-07T04:23:52;12.93;;;10.77;;
76962;SDS011;65902;51.452;7.198;2023-05-07T04:24:56;18.10;;;13.20;;
76962;SDS011;65902;51.452;7.198;2023-05-07T04:25:56;13.80;;;11.88;;
76962;SDS011;65902;51.452;7.198;2023-05-07T04:26:59;16.73;;;12.90;;
76962;SDS011;65902;51.452;7.198;2023-05-07T04:28:01;15.65;;;11.98;;
76962;SDS011;65902;51.452;7.198;2023-05-07T04:29:02;16.83;;;13.10;;
76962;SDS011;65902;51.452;7.198;2023-05-07T04:30:03;16.40;;;13.25;;
76962;SDS011;65902;51.452;7.198;2023-05-07T04:31:03;18.20;;;13.75;;
76962;SDS011;65902;51.452;7.198;2023-05-07T04:32:04;15.52;;;13.55;;
76962;SDS011;65902;51.452;7.198;2023-05-07T04:33:07;18.33;;;13.65;;
76962;SDS011;65902;51.452;7.198;2023-05-07T04:34:08;16.50;;;13.40;;
76962;SDS011;65902;51.452;7.198;2023-05-07T04:35:09;19.83;;;14.45;;
76962;SDS011;65902;51.452;7.198;2023-05-07T04:36:10;17.10;;;13.32;;
76962;SDS011;65902;51.452;7.198;2023-05-07T04:37:10;18.25;;;14.15;;
76962;SDS011;65902;51.452;7.198;2023-05-07T04:38:11;16.65;;;13.23;;
76962;SDS011;65902;51.452;7.198;2023-05-07T04:39:11;20.42;;;14.63;;
76962;SDS011;65902;51.452;7.198;2023-05-07T04:40:12;17.88;;;15.90;;
76962;SDS011;65902;51.452;7.198;2023-05-07T04:41:16;19.73;;;14.30;;
76962;SDS011;65902;51.452;7.198;2023-05-07T04:42:17;17.10;;;14.02;;
76962;SDS011;65902;51.452;7.198;2023-05-07T04:44:20;16.10;;;13.73;;
76962;SDS011;65902;51.452;7.198;2023-05-07T04:45:21;15.52;;;13.00;;
76962;SDS011;65902;51.452;7.198;2023-05-07T04:46:22;18.13;;;13.40;;
76962;SDS011;65902;51.452;7.198;2023-05-07T04:47:25;19.65;;;14.45;;
76962;SDS011;65902;51.452;7.198;2023-05-07T04:48:26;19.70;;;13.55;;
76962;SDS011;65902;51.452;7.198;2023-05-07T04:49:27;18.80;;;14.40;;
76962;SDS011;65902;51.452;7.198;2023-05-07T04:50:28;21.45;;;14.18;;
76962;SDS011;65902;51.452;7.198;2023-05-07T04:51:31;20.90;;;14.40;;
76962;SDS011;65902;51.452;7.198;2023-05-07T04:52:34;16.85;;;14.13;;
76962;SDS011;65902;51.452;7.198;2023-05-07T04:53:35;18.42;;;14.68;;
76962;SDS011;65902;51.452;7.198;2023-05-07T04:54:38;18.85;;;14.32;;
76962;SDS011;65902;51.452;7.198;2023-05-07T04:55:41;17.35;;;14.48;;
76962;SDS011;65902;51.452;7.198;2023-05-07T04:56:44;16.88;;;13.18;;
76962;SDS011;65902;51.452;7.198;2023-05-07T04:57:47;16.42;;;14.07;;
76962;SDS011;65902;51.452;7.198;2023-05-07T04:58:47;16.88;;;13.07;;
76962;SDS011;65902;51.452;7.198;2023-05-07T04:59:50;16.02;;;13.25;;
76962;SDS011;65902;51.452;7.198;2023-05-07T05:00:51;19.30;;;14.20;;
76962;SDS011;65902;51.452;7.198;2023-05-07T05:01:51;14.93;;;12.75;;
76962;SDS011;65902;51.452;7.198;2023-05-07T05:02:55;19.27;;;13.77;;
76962;SDS011;65902;51.452;7.198;2023-05-07T05:03:55;17.27;;;12.95;;
76962;SDS011;65902;51.452;7.198;2023-05-07T05:04:55;18.58;;;12.10;;
76962;SDS011;65902;51.452;7.198;2023-05-07T05:05:56;17.63;;;13.45;;
76962;SDS011;65902;51.452;7.198;2023-05-07T05:06:59;16.70;;;12.75;;
76962;SDS011;65902;51.452;7.198;2023-05-07T05:08:00;17.23;;;12.07;;
76962;SDS011;65902;51.452;7.198;2023-05-07T05:09:01;17.00;;;13.10;;
76962;SDS011;65902;51.452;7.198;2023-05-07T05:10:05;15.18;;;12.00;;
76962;SDS011;65902;51.452;7.198;2023-05-07T05:11:06;15.35;;;12.50;;
76962;SDS011;65902;51.452;7.198;2023-05-07T05:12:09;14.00;;;11.40;;
76962;SDS011;65902;51.452;7.198;2023-05-07T05:13:10;16.77;;;12.05;;
76962;SDS011;65902;51.452;7.198;2023-05-07T05:14:13;17.08;;;12.27;;
76962;SDS011;65902;51.452;7.198;2023-05-07T05:15:16;13.15;;;11.32;;
76962;SDS011;65902;51.452;7.198;2023-05-07T05:16:17;14.25;;;11.77;;
76962;SDS011;65902;51.452;7.198;2023-05-07T05:17:17;13.68;;;11.20;;
76962;SDS011;65902;51.452;7.198;2023-05-07T05:18:18;15.90;;;11.88;;
76962;SDS011;65902;51.452;7.198;2023-05-07T05:19:19;14.38;;;11.07;;
76962;SDS011;65902;51.452;7.198;2023-05-07T05:20:19;14.52;;;12.40;;
76962;SDS011;65902;51.452;7.198;2023-05-07T05:21:22;13.95;;;11.65;;
76962;SDS011;65902;51.452;7.198;2023-05-07T05:22:23;14.27;;;11.18;;
76962;SDS011;65902;51.452;7.198;2023-05-07T05:23:26;14.07;;;12.15;;
76962;SDS011;65902;51.452;7.198;2023-05-07T05:24:29;13.95;;;10.20;;
76962;SDS011;65902;51.452;7.198;2023-05-07T05:25:32;14.57;;;12.95;;
76962;SDS011;65902;51.452;7.198;2023-05-07T05:26:32;13.85;;;10.40;;
76962;SDS011;65902;51.452;7.198;2023-05-07T05:27:35;13.60;;;10.38;;
76962;SDS011;65902;51.452;7.198;2023-05-07T05:28:38;12.55;;;10.40;;
76962;SDS011;65902;51.452;7.198;2023-05-07T05:29:39;14.25;;;10.20;;
76962;SDS011;65902;51.452;7.198;2023-05-07T05:30:40;13.48;;;11.43;;
76962;SDS011;65902;51.452;7.198;2023-05-07T05:31:40;11.90;;;9.20;;
76962;SDS011;65902;51.452;7.198;2023-05-07T05:32:41;11.73;;;10.50;;
76962;SDS011;65902;51.452;7.198;2023-05-07T05:33:42;12.85;;;9.30;;
76962;SDS011;65902;51.452;7.198;2023-05-07T05:34:42;12.65;;;10.15;;
76962;SDS011;65902;51.452;7.198;2023-05-07T05:35:42;11.82;;;9.57;;
76962;SDS011;65902;51.452;7.198;2023-05-07T05:36:43;11.63;;;9.75;;
76962;SDS011;65902;51.452;7.198;2023-05-07T05:37:47;11.40;;;9.40;;
76962;SDS011;65902;51.452;7.198;2023-05-07T05:38:51;10.77;;;9.30;;
76962;SDS011;65902;51.452;7.198;2023-05-07T05:39:52;10.40;;;9.35;;
76962;SDS011;65902;51.452;7.198;2023-05-07T05:40:55;13.75;;;10.35;;
76962;SDS011;65902;51.452;7.198;2023-05-07T05:41:55;15.52;;;9.45;;
76962;SDS011;65902;51.452;7.198;2023-05-07T05:42:59;12.07;;;9.35;;
76962;SDS011;65902;51.452;7.198;2023-05-07T05:44:00;10.88;;;9.50;;
76962;SDS011;65902;51.452;7.198;2023-05-07T05:45:01;12.13;;;10.07;;
76962;SDS011;65902;51.452;7.198;2023-05-07T05:46:01;11.35;;;9.98;;
76962;SDS011;65902;51.452;7.198;2023-05-07T05:47:04;12.15;;;10.10;;
76962;SDS011;65902;51.452;7.198;2023-05-07T05:48:07;12.82;;;9.40;;
76962;SDS011;65902;51.452;7.198;2023-05-07T05:49:08;10.90;;;8.63;;
76962;SDS011;65902;51.452;7.198;2023-05-07T05:50:12;12.48;;;9.88;;
76962;SDS011;65902;51.452;7.198;2023-05-07T05:51:12;12.32;;;9.55;;
76962;SDS011;65902;51.452;7.198;2023-05-07T05:52:13;11.88;;;9.15;;
76962;SDS011;65902;51.452;7.198;2023-05-07T05:53:17;10.00;;;7.90;;
76962;SDS011;65902;51.452;7.198;2023-05-07T05:54:17;10.75;;;8.85;;
76962;SDS011;65902;51.452;7.198;2023-05-07T05:55:20;10.40;;;9.23;;
76962;SDS011;65902;51.452;7.198;2023-05-07T05:56:23;10.07;;;8.98;;
76962;SDS011;65902;51.452;7.198;2023-05-07T05:57:23;10.90;;;8.70;;
76962;SDS011;65902;51.452;7.198;2023-05-07T05:58:24;10.93;;;8.27;;
76962;SDS011;65902;51.452;7.198;2023-05-07T05:59:24;8.85;;;7.88;;
76962;SDS011;65902;51.452;7.198;2023-05-07T06:00:25;9.50;;;7.75;;
76962;SDS011;65902;51.452;7.198;2023-05-07T06:01:28;7.60;;;6.80;;
76962;SDS011;65902;51.452;7.198;2023-05-07T06:02:31;8.98;;;7.90;;
76962;SDS011;65902;51.452;7.198;2023-05-07T06:03:34;9.27;;;7.50;;
76962;SDS011;65902;51.452;7.198;2023-05-07T06:04:35;10.50;;;8.32;;
76962;SDS011;65902;51.452;7.198;2023-05-07T06:05:38;8.90;;;6.90;;
76962;SDS011;65902;51.452;7.198;2023-05-07T06:06:38;9.48;;;7.63;;
76962;SDS011;65902;51.452;7.198;2023-05-07T06:07:38;11.23;;;7.35;;
76962;SDS011;65902;51.452;7.198;2023-05-07T06:08:39;7.70;;;6.90;;
76962;SDS011;65902;51.452;7.198;2023-05-07T06:09:42;7.88;;;6.78;;
76962;SDS011;65902;51.452;7.198;2023-05-07T06:10:42;7.15;;;6.20;;
76962;SDS011;65902;51.452;7.198;2023-05-07T06:11:45;9.07;;;6.90;;
76962;SDS011;65902;51.452;7.198;2023-05-07T06:12:48;7.78;;;6.55;;
76962;SDS011;65902;51.452;7.198;2023-05-07T06:13:48;8.70;;;6.38;;
76962;SDS011;65902;51.452;7.198;2023-05-07T06:14:52;8.75;;;6.70;;
76962;SDS011;65902;51.452;7.198;2023-05-07T06:15:53;7.07;;;6.38;;